sensor_id;sensor_type;location;lat;lon;timestamp;pressure;altitude;pressure_sealevel;temperature;humidity
25610;BME280;13479;49.044;8.716;2023-03-01T05:02:21;99521.66;;;-1.46;66.10
25610;BME280;13479;49.044;8.716;2023-03-01T05:04:46;99545.38;;;-1.57;66.25
25610;BME280;13479;49.044;8.716;2023-03-01T05:07:11;99533.38;;;-1.63;66.43
25610;BME280;13479;49.044;8.716;2023-03-01T05:09:38;99527.22;;;-1.59;66.52
25610;BME280;13479;49.044;8.716;2023-03-01T05:12:03;99522.78;;;-1.55;66.32
25610;BME280;13479;49.044;8.716;2023-03-01T05:14:29;99529.34;;;-1.73;66.82
25610;BME280;13479;49.044;8.716;2023-03-01T05:16:54;99507.81;;;-1.80;67.03
25610;BME280;13479;49.044;8.716;2023-03-01T05:19:19;99491.69;;;-1.93;67.79
25610;BME280;13479;49.044;8.716;2023-03-01T05:21:47;99481.03;;;-1.83;67.35
25610;BME280;13479;49.044;8.716;2023-03-01T05:24:33;99482.81;;;-1.86;67.64
25610;BME280;13479;49.044;8.716;2023-03-01T05:26:59;99494.94;;;-1.84;67.19
25610;BME280;13479;49.044;8.716;2023-03-01T05:29:26;99491.63;;;-1.90;67.52
25610;BME280;13479;49.044;8.716;2023-03-01T05:34:18;99510.41;;;-1.78;67.40
25610;BME280;13479;49.044;8.716;2023-03-01T05:36:44;99508.84;;;-1.86;67.54
25610;BME280;13479;49.044;8.716;2023-03-01T05:39:09;99500.13;;;-1.83;67.60
25610;BME280;13479;49.044;8.716;2023-03-01T05:41:34;99520.81;;;-1.78;67.46
25610;BME280;13479;49.044;8.716;2023-03-01T05:44:00;99525.84;;;-1.72;66.86
25610;BME280;13479;49.044;8.716;2023-03-01T05:46:25;99532.84;;;-1.74;67.26
25610;BME280;13479;49.044;8.716;2023-03-01T05:48:50;99533.66;;;-1.72;67.43
25610;BME280;13479;49.044;8.716;2023-03-01T05:51:15;99514.88;;;-1.83;67.83
25610;BME280;13479;49.044;8.716;2023-03-01T05:53:41;99506.09;;;-1.79;67.63
25610;BME280;13479;49.044;8.716;2023-03-01T05:56:06;99503.31;;;-1.73;67.72
25610;BME280;13479;49.044;8.716;2023-03-01T05:58:32;99527.56;;;-1.71;67.59
25610;BME280;13479;49.044;8.716;2023-03-01T06:00:57;99536.94;;;-1.64;67.12
25610;BME280;13479;49.044;8.716;2023-03-01T06:03:23;99532.69;;;-1.68;67.10
25610;BME280;13479;49.044;8.716;2023-03-01T06:05:48;99556.69;;;-1.57;66.70
25610;BME280;13479;49.044;8.716;2023-03-01T06:08:13;99576.56;;;-1.54;66.70
25610;BME280;13479;49.044;8.716;2023-03-01T06:10:39;99570.66;;;-1.61;66.93
25610;BME280;13479;49.044;8.716;2023-03-01T06:13:04;99569.78;;;-1.60;67.07
25610;BME280;13479;49.044;8.716;2023-03-01T06:15:30;99567.22;;;-1.61;66.70
25610;BME280;13479;49.044;8.716;2023-03-01T06:17:55;99570.66;;;-1.61;66.57
25610;BME280;13479;49.044;8.716;2023-03-01T06:20:25;99562.69;;;-1.54;67.08
25610;BME280;13479;49.044;8.716;2023-03-01T06:22:52;99589.13;;;-1.37;66.20
25610;BME280;13479;49.044;8.716;2023-03-01T06:25:20;99621.00;;;-1.29;66.15
25610;BME280;13479;49.044;8.716;2023-03-01T06:27:46;99645.53;;;-1.36;65.67
25610;BME280;13479;49.044;8.716;2023-03-01T06:30:16;99675.50;;;-1.19;65.33
25610;BME280;13479;49.044;8.716;2023-03-01T06:32:42;99705.88;;;-1.18;64.98
25610;BME280;13479;49.044;8.716;2023-03-01T06:35:09;99720.59;;;-1.17;64.92
25610;BME280;13479;49.044;8.716;2023-03-01T06:37:35;99721.50;;;-1.18;65.34
25610;BME280;13479;49.044;8.716;2023-03-01T06:40:02;99734.06;;;-1.01;64.50
25610;BME280;13479;49.044;8.716;2023-03-01T06:42:33;99771.09;;;-0.88;64.32
25610;BME280;13479;49.044;8.716;2023-03-01T06:44:58;99802.88;;;-0.75;63.67
25610;BME280;13479;49.044;8.716;2023-03-01T06:47:24;99815.09;;;-0.76;63.82
25610;BME280;13479;49.044;8.716;2023-03-01T06:49:49;99818.97;;;-0.59;63.38
25610;BME280;13479;49.044;8.716;2023-03-01T06:52:14;99840.59;;;-0.54;62.38
25610;BME280;13479;49.044;8.716;2023-03-01T06:54:39;99833.56;;;-0.52;62.89
25610;BME280;13479;49.044;8.716;2023-03-01T06:57:05;99836.22;;;-0.54;62.40
25610;BME280;13479;49.044;8.716;2023-03-01T06:59:30;99833.47;;;-0.49;62.47
25610;BME280;13479;49.044;8.716;2023-03-01T07:01:56;99819.47;;;-0.45;62.52
25610;BME280;13479;49.044;8.716;2023-03-01T07:04:21;99825.41;;;-0.40;62.23
25610;BME280;13479;49.044;8.716;2023-03-01T07:06:46;99824.66;;;-0.45;61.71
25610;BME280;13479;49.044;8.716;2023-03-01T07:09:19;99811.50;;;-0.40;62.07
25610;BME280;13479;49.044;8.716;2023-03-01T07:11:46;99815.69;;;-0.35;61.83
25610;BME280;13479;49.044;8.716;2023-03-01T07:14:11;99808.69;;;-0.33;61.68
25610;BME280;13479;49.044;8.716;2023-03-01T07:16:37;99811.00;;;-0.23;61.17
25610;BME280;13479;49.044;8.716;2023-03-01T07:19:02;99805.56;;;-0.16;61.29
25610;BME280;13479;49.044;8.716;2023-03-01T07:21:27;99809.84;;;-0.13;61.01
25610;BME280;13479;49.044;8.716;2023-03-01T07:23:52;99785.28;;;-0.06;61.66
25610;BME280;13479;49.044;8.716;2023-03-01T07:26:18;99783.97;;;0.09;61.17
25610;BME280;13479;49.044;8.716;2023-03-01T07:28:43;99814.78;;;0.26;60.13
25610;BME280;13479;49.044;8.716;2023-03-01T07:31:08;99825.78;;;0.36;59.61
25610;BME280;13479;49.044;8.716;2023-03-01T07:33:34;99822.19;;;0.40;59.25
25610;BME280;13479;49.044;8.716;2023-03-01T07:36:01;99799.94;;;0.55;59.82
25610;BME280;13479;49.044;8.716;2023-03-01T07:38:27;99800.84;;;0.81;58.96
25610;BME280;13479;49.044;8.716;2023-03-01T07:40:53;99792.63;;;1.66;58.14
25610;BME280;13479;49.044;8.716;2023-03-01T07:43:19;99816.72;;;3.30;53.57
25610;BME280;13479;49.044;8.716;2023-03-01T07:45:45;99810.78;;;4.95;49.97
25610;BME280;13479;49.044;8.716;2023-03-01T07:48:10;99814.69;;;5.91;45.64
25610;BME280;13479;49.044;8.716;2023-03-01T07:50:35;99809.00;;;6.93;44.13
25610;BME280;13479;49.044;8.716;2023-03-01T07:53:01;99813.06;;;7.72;41.94
25610;BME280;13479;49.044;8.716;2023-03-01T07:55:27;99811.75;;;8.36;40.04
25610;BME280;13479;49.044;8.716;2023-03-01T07:57:52;99810.75;;;9.19;37.97
25610;BME280;13479;49.044;8.716;2023-03-01T08:00:18;99798.03;;;9.89;37.01
25610;BME280;13479;49.044;8.716;2023-03-01T08:02:43;99798.34;;;10.34;36.04
25610;BME280;13479;49.044;8.716;2023-03-01T08:05:09;99804.28;;;10.98;34.73
25610;BME280;13479;49.044;8.716;2023-03-01T08:07:35;99799.81;;;11.34;33.81
25610;BME280;13479;49.044;8.716;2023-03-01T08:10:00;99784.75;;;11.92;33.66
25610;BME280;13479;49.044;8.716;2023-03-01T08:12:25;99784.25;;;12.64;31.82
25610;BME280;13479;49.044;8.716;2023-03-01T08:14:53;99780.13;;;12.93;31.76
25610;BME280;13479;49.044;8.716;2023-03-01T08:17:18;99780.38;;;13.53;30.63
25610;BME280;13479;49.044;8.716;2023-03-01T08:19:44;99776.53;;;14.18;29.53
25610;BME280;13479;49.044;8.716;2023-03-01T08:22:09;99780.28;;;14.86;28.90
25610;BME280;13479;49.044;8.716;2023-03-01T08:24:35;99769.31;;;14.69;28.77
25610;BME280;13479;49.044;8.716;2023-03-01T08:27:00;99769.56;;;14.66;28.40
25610;BME280;13479;49.044;8.716;2023-03-01T08:29:27;99774.66;;;14.89;27.80
25610;BME280;13479;49.044;8.716;2023-03-01T08:31:53;99765.09;;;14.76;27.52
25610;BME280;13479;49.044;8.716;2023-03-01T08:34:18;99763.00;;;15.37;27.25
25610;BME280;13479;49.044;8.716;2023-03-01T08:36:46;99753.31;;;16.02;27.23
25610;BME280;13479;49.044;8.716;2023-03-01T08:39:14;99765.28;;;16.08;26.22
25610;BME280;13479;49.044;8.716;2023-03-01T08:41:40;99763.50;;;16.62;25.98
25610;BME280;13479;49.044;8.716;2023-03-01T08:44:07;99755.66;;;16.87;25.19
25610;BME280;13479;49.044;8.716;2023-03-01T08:46:34;99754.09;;;16.58;25.20
25610;BME280;13479;49.044;8.716;2023-03-01T08:49:03;99757.53;;;16.68;24.82
25610;BME280;13479;49.044;8.716;2023-03-01T08:51:29;99752.44;;;16.29;25.13
25610;BME280;13479;49.044;8.716;2023-03-01T08:53:56;99740.53;;;16.42;25.23
25610;BME280;13479;49.044;8.716;2023-03-01T08:56:22;99736.72;;;15.70;25.64
25610;BME280;13479;49.044;8.716;2023-03-01T08:58:48;99732.75;;;15.37;26.20
25610;BME280;13479;49.044;8.716;2023-03-01T09:01:16;99714.69;;;14.32;27.30
25610;BME280;13479;49.044;8.716;2023-03-01T09:03:41;99714.34;;;13.96;27.60
25610;BME280;13479;49.044;8.716;2023-03-01T09:06:08;99693.03;;;14.26;27.58
25610;BME280;13479;49.044;8.716;2023-03-01T09:08:38;99693.75;;;14.47;27.24
25610;BME280;13479;49.044;8.716;2023-03-01T09:11:05;99684.19;;;14.25;27.64
25610;BME280;13479;49.044;8.716;2023-03-01T09:13:31;99686.16;;;14.52;27.19
25610;BME280;13479;49.044;8.716;2023-03-01T09:15:58;99689.91;;;14.99;26.33
25610;BME280;13479;49.044;8.716;2023-03-01T09:18:23;99691.00;;;15.54;26.31
25610;BME280;13479;49.044;8.716;2023-03-01T09:20:49;99709.00;;;15.24;26.23
25610;BME280;13479;49.044;8.716;2023-03-01T09:23:14;99711.03;;;15.02;26.73
25610;BME280;13479;49.044;8.716;2023-03-01T09:25:39;99701.22;;;14.54;27.18
25610;BME280;13479;49.044;8.716;2023-03-01T09:28:04;99696.41;;;14.08;27.82
25610;BME280;13479;49.044;8.716;2023-03-01T09:30:30;99686.59;;;14.58;27.20
25610;BME280;13479;49.044;8.716;2023-03-01T09:32:58;99679.28;;;14.20;27.87
25610;BME280;13479;49.044;8.716;2023-03-01T09:35:23;99685.84;;;14.95;27.51
25610;BME280;13479;49.044;8.716;2023-03-01T09:37:49;99665.22;;;15.53;26.74
25610;BME280;13479;49.044;8.716;2023-03-01T09:40:18;99662.78;;;16.60;25.72
25610;BME280;13479;49.044;8.716;2023-03-01T09:42:49;99679.41;;;16.27;24.99
25610;BME280;13479;49.044;8.716;2023-03-01T09:45:38;99679.53;;;16.80;24.69
25610;BME280;13479;49.044;8.716;2023-03-01T09:48:12;99686.78;;;16.88;24.41
25610;BME280;13479;49.044;8.716;2023-03-01T09:50:41;99671.41;;;17.16;24.40
25610;BME280;13479;49.044;8.716;2023-03-01T09:53:13;99664.47;;;17.40;24.48
25610;BME280;13479;49.044;8.716;2023-03-01T09:58:36;99666.41;;;18.15;23.40
25610;BME280;13479;49.044;8.716;2023-03-01T10:01:19;99655.84;;;18.80;22.59
25610;BME280;13479;49.044;8.716;2023-03-01T10:04:04;99657.84;;;18.78;22.64
25610;BME280;13479;49.044;8.716;2023-03-01T10:06:31;99656.31;;;18.83;22.42
25610;BME280;13479;49.044;8.716;2023-03-01T10:08:59;99663.34;;;19.09;22.13
25610;BME280;13479;49.044;8.716;2023-03-01T10:11:30;99648.41;;;18.90;22.52
25610;BME280;13479;49.044;8.716;2023-03-01T10:14:15;99650.97;;;18.50;22.44
25610;BME280;13479;49.044;8.716;2023-03-01T10:17:02;99655.13;;;18.86;22.38
25610;BME280;13479;49.044;8.716;2023-03-01T10:19:45;99640.13;;;19.17;22.33
25610;BME280;13479;49.044;8.716;2023-03-01T10:22:27;99643.41;;;19.35;21.80
25610;BME280;13479;49.044;8.716;2023-03-01T10:24:54;99649.56;;;19.52;21.61
25610;BME280;13479;49.044;8.716;2023-03-01T10:27:25;99642.31;;;19.61;21.63
25610;BME280;13479;49.044;8.716;2023-03-01T10:30:19;99631.63;;;19.36;21.93
25610;BME280;13479;49.044;8.716;2023-03-01T10:32:46;99639.66;;;19.53;21.79
25610;BME280;13479;49.044;8.716;2023-03-01T10:38:21;99637.88;;;18.47;22.62
25610;BME280;13479;49.044;8.716;2023-03-01T10:41:06;99628.13;;;18.63;22.71
25610;BME280;13479;49.044;8.716;2023-03-01T10:43:55;99625.59;;;18.45;22.46
25610;BME280;13479;49.044;8.716;2023-03-01T10:49:22;99619.28;;;17.62;23.51
25610;BME280;13479;49.044;8.716;2023-03-01T10:51:52;99618.94;;;16.69;24.33
25610;BME280;13479;49.044;8.716;2023-03-01T10:54:32;99594.97;;;15.69;25.11
25610;BME280;13479;49.044;8.716;2023-03-01T10:56:59;99589.94;;;15.10;26.56
25610;BME280;13479;49.044;8.716;2023-03-01T11:02:29;99551.91;;;15.62;26.47
25610;BME280;13479;49.044;8.716;2023-03-01T11:07:28;99541.69;;;16.12;25.26
25610;BME280;13479;49.044;8.716;2023-03-01T11:09:54;99543.22;;;15.96;25.85
25610;BME280;13479;49.044;8.716;2023-03-01T11:12:21;99538.22;;;15.47;25.85
25610;BME280;13479;49.044;8.716;2023-03-01T11:14:51;99538.50;;;14.98;26.38
25610;BME280;13479;49.044;8.716;2023-03-01T11:17:29;99520.09;;;14.67;27.02
25610;BME280;13479;49.044;8.716;2023-03-01T11:22:45;99508.56;;;13.89;27.72
25610;BME280;13479;49.044;8.716;2023-03-01T11:25:13;99510.50;;;13.48;28.65
25610;BME280;13479;49.044;8.716;2023-03-01T11:27:44;99510.78;;;12.23;30.29
25610;BME280;13479;49.044;8.716;2023-03-01T11:32:42;99485.31;;;11.55;31.86
25610;BME280;13479;49.044;8.716;2023-03-01T11:35:16;99481.91;;;10.65;33.07
25610;BME280;13479;49.044;8.716;2023-03-01T11:37:55;99476.28;;;10.11;34.16
25610;BME280;13479;49.044;8.716;2023-03-01T11:40:27;99474.88;;;9.71;35.08
25610;BME280;13479;49.044;8.716;2023-03-01T11:43:15;99469.59;;;8.99;35.74
25610;BME280;13479;49.044;8.716;2023-03-01T11:50:47;99476.28;;;8.02;38.20
25610;BME280;13479;49.044;8.716;2023-03-01T11:53:33;99471.16;;;7.73;38.72
25610;BME280;13479;49.044;8.716;2023-03-01T11:56:21;99461.81;;;7.55;39.66
25610;BME280;13479;49.044;8.716;2023-03-01T11:59:25;99458.31;;;7.41;39.66
25610;BME280;13479;49.044;8.716;2023-03-01T12:02:11;99462.97;;;7.10;40.24
25610;BME280;13479;49.044;8.716;2023-03-01T12:07:27;99437.19;;;6.87;41.17
25610;BME280;13479;49.044;8.716;2023-03-01T12:10:20;99435.41;;;7.15;40.96
25610;BME280;13479;49.044;8.716;2023-03-01T12:15:49;99404.75;;;7.12;40.96
25610;BME280;13479;49.044;8.716;2023-03-01T12:18:50;99399.47;;;7.12;40.73
25610;BME280;13479;49.044;8.716;2023-03-01T12:22:17;99396.84;;;7.12;41.15
25610;BME280;13479;49.044;8.716;2023-03-01T12:24:28;99381.28;;;6.94;40.76
25610;BME280;13479;49.044;8.716;2023-03-01T12:27:12;99353.50;;;6.89;41.42
25610;BME280;13479;49.044;8.716;2023-03-01T12:32:37;99357.31;;;6.98;41.56
25610;BME280;13479;49.044;8.716;2023-03-01T12:38:06;99326.91;;;6.92;42.38
25610;BME280;13479;49.044;8.716;2023-03-01T12:40:50;99321.13;;;7.13;42.29
25610;BME280;13479;49.044;8.716;2023-03-01T12:43:34;99318.81;;;7.21;41.67
25610;BME280;13479;49.044;8.716;2023-03-01T12:48:52;99298.38;;;6.97;41.65
25610;BME280;13479;49.044;8.716;2023-03-01T12:51:23;99298.75;;;7.18;42.21
25610;BME280;13479;49.044;8.716;2023-03-01T12:53:50;99293.56;;;7.17;41.81
25610;BME280;13479;49.044;8.716;2023-03-01T12:56:35;99288.19;;;7.18;41.50
25610;BME280;13479;49.044;8.716;2023-03-01T12:59:51;99281.97;;;7.19;42.44
25610;BME280;13479;49.044;8.716;2023-03-01T13:02:35;99289.88;;;7.32;41.65
25610;BME280;13479;49.044;8.716;2023-03-01T13:05:23;99280.69;;;7.25;41.68
25610;BME280;13479;49.044;8.716;2023-03-01T13:08:53;99281.22;;;7.17;41.37
25610;BME280;13479;49.044;8.716;2023-03-01T13:10:58;99269.91;;;7.15;41.26
25610;BME280;13479;49.044;8.716;2023-03-01T13:13:26;99270.72;;;7.16;41.62
25610;BME280;13479;49.044;8.716;2023-03-01T13:15:53;99266.94;;;7.20;41.71
25610;BME280;13479;49.044;8.716;2023-03-01T13:20:48;99249.63;;;7.41;41.32
25610;BME280;13479;49.044;8.716;2023-03-01T13:31:03;99248.56;;;7.44;41.32
25610;BME280;13479;49.044;8.716;2023-03-01T13:35:55;99252.13;;;7.43;41.21
25610;BME280;13479;49.044;8.716;2023-03-01T13:41:17;99236.94;;;7.47;40.89
25610;BME280;13479;49.044;8.716;2023-03-01T13:44:12;99235.69;;;7.52;41.42
25610;BME280;13479;49.044;8.716;2023-03-01T13:46:44;99232.91;;;7.54;40.92
25610;BME280;13479;49.044;8.716;2023-03-01T13:49:14;99233.66;;;7.56;40.78
25610;BME280;13479;49.044;8.716;2023-03-01T13:51:40;99218.63;;;7.56;41.64
25610;BME280;13479;49.044;8.716;2023-03-01T13:54:11;99235.00;;;7.75;40.97
25610;BME280;13479;49.044;8.716;2023-03-01T13:56:38;99231.41;;;7.76;41.07
25610;BME280;13479;49.044;8.716;2023-03-01T13:59:13;99232.47;;;7.73;41.34
25610;BME280;13479;49.044;8.716;2023-03-01T14:01:38;99229.28;;;7.81;40.74
25610;BME280;13479;49.044;8.716;2023-03-01T14:04:27;99224.41;;;7.75;41.31
25610;BME280;13479;49.044;8.716;2023-03-01T14:07:11;99231.81;;;7.82;40.33
25610;BME280;13479;49.044;8.716;2023-03-01T14:09:41;99224.63;;;7.84;40.75
25610;BME280;13479;49.044;8.716;2023-03-01T14:12:44;99226.31;;;7.85;40.75
25610;BME280;13479;49.044;8.716;2023-03-01T14:15:21;99229.16;;;7.82;40.91
25610;BME280;13479;49.044;8.716;2023-03-01T14:20:32;99236.84;;;7.98;40.60
25610;BME280;13479;49.044;8.716;2023-03-01T14:23:02;99252.91;;;7.95;40.93
25610;BME280;13479;49.044;8.716;2023-03-01T14:25:35;99247.63;;;7.95;40.18
25610;BME280;13479;49.044;8.716;2023-03-01T14:30:47;99247.28;;;7.63;40.18
25610;BME280;13479;49.044;8.716;2023-03-01T14:38:36;99227.41;;;7.57;40.85
25610;BME280;13479;49.044;8.716;2023-03-01T14:41:06;99229.81;;;7.60;41.17
25610;BME280;13479;49.044;8.716;2023-03-01T14:43:32;99232.06;;;7.66;40.45
25610;BME280;13479;49.044;8.716;2023-03-01T14:45:58;99232.47;;;7.60;41.34
25610;BME280;13479;49.044;8.716;2023-03-01T14:48:24;99224.34;;;7.63;41.01
25610;BME280;13479;49.044;8.716;2023-03-01T14:50:50;99224.25;;;7.65;40.58
25610;BME280;13479;49.044;8.716;2023-03-01T14:53:20;99234.16;;;7.74;40.93
25610;BME280;13479;49.044;8.716;2023-03-01T14:55:50;99231.19;;;7.79;40.79
25610;BME280;13479;49.044;8.716;2023-03-01T14:58:20;99243.94;;;7.85;40.51
25610;BME280;13479;49.044;8.716;2023-03-01T15:00:57;99249.97;;;7.87;40.62
25610;BME280;13479;49.044;8.716;2023-03-01T15:03:37;99258.84;;;7.86;40.52
25610;BME280;13479;49.044;8.716;2023-03-01T15:06:05;99265.84;;;7.87;40.28
25610;BME280;13479;49.044;8.716;2023-03-01T15:08:31;99266.78;;;7.86;40.06
25610;BME280;13479;49.044;8.716;2023-03-01T15:13:31;99257.41;;;7.82;40.47
25610;BME280;13479;49.044;8.716;2023-03-01T15:16:03;99264.59;;;7.80;40.76
25610;BME280;13479;49.044;8.716;2023-03-01T15:18:29;99260.34;;;7.90;41.01
25610;BME280;13479;49.044;8.716;2023-03-01T15:20:55;99257.16;;;7.85;40.55
25610;BME280;13479;49.044;8.716;2023-03-01T15:23:29;99252.13;;;7.82;40.76
25610;BME280;13479;49.044;8.716;2023-03-01T15:25:56;99261.50;;;7.86;40.32
25610;BME280;13479;49.044;8.716;2023-03-01T15:28:28;99266.91;;;7.84;40.58
25610;BME280;13479;49.044;8.716;2023-03-01T15:30:57;99269.22;;;7.89;40.48
25610;BME280;13479;49.044;8.716;2023-03-01T15:35:51;99281.81;;;7.72;40.54
25610;BME280;13479;49.044;8.716;2023-03-01T15:40:50;99272.63;;;7.65;40.96
25610;BME280;13479;49.044;8.716;2023-03-01T15:43:37;99269.91;;;7.54;40.68
25610;BME280;13479;49.044;8.716;2023-03-01T15:46:02;99265.06;;;7.48;40.45
25610;BME280;13479;49.044;8.716;2023-03-01T15:48:29;99251.09;;;7.46;41.22
25610;BME280;13479;49.044;8.716;2023-03-01T15:50:57;99253.44;;;7.50;41.08
25610;BME280;13479;49.044;8.716;2023-03-01T15:53:23;99250.66;;;7.52;41.57
25610;BME280;13479;49.044;8.716;2023-03-01T15:55:48;99255.94;;;7.52;40.81
25610;BME280;13479;49.044;8.716;2023-03-01T15:58:17;99246.75;;;7.57;40.74
25610;BME280;13479;49.044;8.716;2023-03-01T16:00:46;99258.50;;;7.53;40.78
25610;BME280;13479;49.044;8.716;2023-03-01T16:03:14;99243.06;;;7.47;41.14
25610;BME280;13479;49.044;8.716;2023-03-01T16:05:39;99238.84;;;7.45;41.19
25610;BME280;13479;49.044;8.716;2023-03-01T16:08:06;99230.19;;;7.42;41.69
25610;BME280;13479;49.044;8.716;2023-03-01T16:10:32;99223.66;;;7.35;41.34
25610;BME280;13479;49.044;8.716;2023-03-01T16:12:58;99227.88;;;7.38;41.65
25610;BME280;13479;49.044;8.716;2023-03-01T16:15:26;99227.22;;;7.34;41.59
25610;BME280;13479;49.044;8.716;2023-03-01T16:17:52;99219.84;;;7.26;41.56
25610;BME280;13479;49.044;8.716;2023-03-01T16:20:18;99214.88;;;7.22;42.34
25610;BME280;13479;49.044;8.716;2023-03-01T16:22:44;99220.25;;;7.33;41.83
25610;BME280;13479;49.044;8.716;2023-03-01T16:25:11;99220.16;;;7.22;41.81
25610;BME280;13479;49.044;8.716;2023-03-01T16:27:37;99207.38;;;7.16;42.25
25610;BME280;13479;49.044;8.716;2023-03-01T16:30:04;99202.09;;;7.16;41.80
25610;BME280;13479;49.044;8.716;2023-03-01T16:32:30;99208.44;;;7.13;41.90
25610;BME280;13479;49.044;8.716;2023-03-01T16:34:55;99198.50;;;7.04;42.07
25610;BME280;13479;49.044;8.716;2023-03-01T16:37:20;99191.31;;;6.93;42.22
25610;BME280;13479;49.044;8.716;2023-03-01T16:39:47;99184.06;;;6.97;42.03
25610;BME280;13479;49.044;8.716;2023-03-01T16:42:13;99182.88;;;6.75;43.20
25610;BME280;13479;49.044;8.716;2023-03-01T16:44:39;99172.84;;;6.80;42.47
25610;BME280;13479;49.044;8.716;2023-03-01T16:47:04;99187.94;;;6.78;43.09
25610;BME280;13479;49.044;8.716;2023-03-01T16:49:30;99187.28;;;6.74;43.04
25610;BME280;13479;49.044;8.716;2023-03-01T16:51:55;99182.75;;;6.63;43.60
25610;BME280;13479;49.044;8.716;2023-03-01T16:54:20;99181.38;;;6.58;43.39
25610;BME280;13479;49.044;8.716;2023-03-01T16:56:45;99190.25;;;6.57;43.32
25610;BME280;13479;49.044;8.716;2023-03-01T16:59:11;99178.25;;;6.38;44.34
25610;BME280;13479;49.044;8.716;2023-03-01T17:01:36;99179.81;;;6.28;44.13
25610;BME280;13479;49.044;8.716;2023-03-01T17:04:06;99179.94;;;6.26;44.18
25610;BME280;13479;49.044;8.716;2023-03-01T17:06:32;99173.50;;;6.30;44.01
25610;BME280;13479;49.044;8.716;2023-03-01T17:08:58;99172.63;;;6.17;44.46
25610;BME280;13479;49.044;8.716;2023-03-01T17:11:24;99175.41;;;6.28;43.60
25610;BME280;13479;49.044;8.716;2023-03-01T17:13:49;99184.88;;;6.18;44.22
25610;BME280;13479;49.044;8.716;2023-03-01T17:16:17;99178.41;;;6.09;44.67
25610;BME280;13479;49.044;8.716;2023-03-01T17:18:42;99170.31;;;5.98;45.04
25610;BME280;13479;49.044;8.716;2023-03-01T17:21:08;99180.09;;;5.96;44.49
25610;BME280;13479;49.044;8.716;2023-03-01T17:23:36;99172.03;;;5.84;45.39
25610;BME280;13479;49.044;8.716;2023-03-01T17:26:02;99177.31;;;5.84;45.20
25610;BME280;13479;49.044;8.716;2023-03-01T17:28:29;99175.38;;;5.74;46.11
25610;BME280;13479;49.044;8.716;2023-03-01T17:30:55;99179.31;;;5.66;45.78
25610;BME280;13479;49.044;8.716;2023-03-01T17:33:20;99185.03;;;5.73;45.02
25610;BME280;13479;49.044;8.716;2023-03-01T17:35:46;99179.97;;;5.70;45.68
25610;BME280;13479;49.044;8.716;2023-03-01T17:38:14;99180.94;;;5.54;46.37
25610;BME280;13479;49.044;8.716;2023-03-01T17:40:41;99184.34;;;5.56;46.34
25610;BME280;13479;49.044;8.716;2023-03-01T17:43:07;99185.56;;;5.51;46.23
25610;BME280;13479;49.044;8.716;2023-03-01T17:45:36;99181.31;;;5.48;45.96
25610;BME280;13479;49.044;8.716;2023-03-01T17:48:01;99188.84;;;5.40;46.34
25610;BME280;13479;49.044;8.716;2023-03-01T17:50:26;99187.84;;;5.28;46.59
25610;BME280;13479;49.044;8.716;2023-03-01T17:52:52;99196.56;;;5.29;46.83
25610;BME280;13479;49.044;8.716;2023-03-01T17:55:19;99198.44;;;5.26;46.38
25610;BME280;13479;49.044;8.716;2023-03-01T17:57:45;99192.44;;;5.10;47.38
25610;BME280;13479;49.044;8.716;2023-03-01T18:00:12;99198.53;;;5.10;47.52
25610;BME280;13479;49.044;8.716;2023-03-01T18:02:38;99195.06;;;4.95;47.48
25610;BME280;13479;49.044;8.716;2023-03-01T18:05:03;99204.53;;;4.84;47.83
25610;BME280;13479;49.044;8.716;2023-03-01T18:07:29;99195.44;;;4.89;47.38
25610;BME280;13479;49.044;8.716;2023-03-01T18:09:54;99199.63;;;4.77;47.58
25610;BME280;13479;49.044;8.716;2023-03-01T18:12:20;99204.63;;;4.82;48.33
25610;BME280;13479;49.044;8.716;2023-03-01T18:14:45;99204.13;;;4.75;48.42
25610;BME280;13479;49.044;8.716;2023-03-01T18:17:12;99193.31;;;4.66;48.27
25610;BME280;13479;49.044;8.716;2023-03-01T18:19:38;99189.44;;;4.57;48.80
25610;BME280;13479;49.044;8.716;2023-03-01T18:22:06;99195.53;;;4.57;49.09
25610;BME280;13479;49.044;8.716;2023-03-01T18:24:32;99185.16;;;4.40;48.67
25610;BME280;13479;49.044;8.716;2023-03-01T18:26:58;99182.41;;;4.27;49.47
25610;BME280;13479;49.044;8.716;2023-03-01T18:29:23;99185.53;;;4.17;49.39
25610;BME280;13479;49.044;8.716;2023-03-01T18:31:48;99178.69;;;4.15;49.33
25610;BME280;13479;49.044;8.716;2023-03-01T18:34:14;99162.00;;;4.16;49.42
25610;BME280;13479;49.044;8.716;2023-03-01T18:36:39;99162.53;;;4.07;49.57
25610;BME280;13479;49.044;8.716;2023-03-01T18:39:05;99160.94;;;4.04;50.29
25610;BME280;13479;49.044;8.716;2023-03-01T18:41:31;99160.16;;;4.02;50.07
25610;BME280;13479;49.044;8.716;2023-03-01T18:43:57;99152.19;;;4.04;50.59
25610;BME280;13479;49.044;8.716;2023-03-01T18:46:23;99149.72;;;4.00;50.04
25610;BME280;13479;49.044;8.716;2023-03-01T18:48:48;99147.09;;;4.00;50.68
25610;BME280;13479;49.044;8.716;2023-03-01T18:51:18;99139.47;;;3.96;50.85
25610;BME280;13479;49.044;8.716;2023-03-01T18:53:44;99136.53;;;4.02;50.63
25610;BME280;13479;49.044;8.716;2023-03-01T18:56:10;99139.22;;;4.00;50.38
25610;BME280;13479;49.044;8.716;2023-03-01T18:58:35;99139.16;;;4.02;50.38
25610;BME280;13479;49.044;8.716;2023-03-01T19:01:01;99125.91;;;4.04;50.55
25610;BME280;13479;49.044;8.716;2023-03-01T19:03:29;99132.63;;;3.93;50.64
25610;BME280;13479;49.044;8.716;2023-03-01T19:05:56;99133.81;;;3.88;50.87
25610;BME280;13479;49.044;8.716;2023-03-01T19:08:21;99131.97;;;3.90;50.53
25610;BME280;13479;49.044;8.716;2023-03-01T19:10:54;99135.63;;;3.87;50.86
25610;BME280;13479;49.044;8.716;2023-03-01T19:13:19;99123.06;;;3.92;50.39
25610;BME280;13479;49.044;8.716;2023-03-01T19:15:45;99125.78;;;3.91;50.91
25610;BME280;13479;49.044;8.716;2023-03-01T19:18:10;99129.75;;;3.98;50.54
25610;BME280;13479;49.044;8.716;2023-03-01T19:20:35;99136.53;;;4.02;51.02
25610;BME280;13479;49.044;8.716;2023-03-01T19:23:00;99133.94;;;4.16;50.30
25610;BME280;13479;49.044;8.716;2023-03-01T19:25:26;99130.78;;;3.95;50.26
25610;BME280;13479;49.044;8.716;2023-03-01T19:27:51;99124.22;;;4.02;50.72
25610;BME280;13479;49.044;8.716;2023-03-01T19:30:16;99129.91;;;3.95;51.11
25610;BME280;13479;49.044;8.716;2023-03-01T19:32:41;99124.09;;;3.90;50.34
25610;BME280;13479;49.044;8.716;2023-03-01T19:35:07;99123.84;;;3.78;51.21